sensor_id;sensor_type;location;lat;lon;timestamp;P1;durP1;ratioP1;P2;durP2;ratioP2
69594;SDS011;56800;52.142;5.364;2023-03-30T00:00:44;10.63;;;4.32;;
69594;SDS011;56800;52.142;5.364;2023-03-30T00:03:11;9.68;;;3.70;;
69594;SDS011;56800;52.142;5.364;2023-03-30T00:05:38;7.75;;;3.83;;
69594;SDS011;56800;52.142;5.364;2023-03-30T00:08:08;9.57;;;3.87;;
69594;SDS011;56800;52.142;5.364;2023-03-30T00:10:34;9.52;;;3.20;;
69594;SDS011;56800;52.142;5.364;2023-03-30T00:13:03;8.75;;;3.45;;
69594;SDS011;56800;52.142;5.364;2023-03-30T00:15:31;9.40;;;3.80;;
69594;SDS011;56800;52.142;5.364;2023-03-30T00:17:57;11.65;;;4.28;;
69594;SDS011;56800;52.142;5.364;2023-03-30T00:20:24;11.67;;;3.77;;
69594;SDS011;56800;52.142;5.364;2023-03-30T00:22:51;7.20;;;3.38;;
69594;SDS011;56800;52.142;5.364;2023-03-30T00:25:17;7.88;;;3.35;;
69594;SDS011;56800;52.142;5.364;2023-03-30T00:27:44;8.40;;;3.42;;
69594;SDS011;56800;52.142;5.364;2023-03-30T00:30:12;12.70;;;3.20;;
69594;SDS011;56800;52.142;5.364;2023-03-30T00:32:44;6.63;;;3.20;;
69594;SDS011;56800;52.142;5.364;2023-03-30T00:35:11;7.13;;;3.10;;
69594;SDS011;56800;52.142;5.364;2023-03-30T00:37:40;11.23;;;3.10;;
69594;SDS011;56800;52.142;5.364;2023-03-30T00:40:15;9.52;;;3.28;;
69594;SDS011;56800;52.142;5.364;2023-03-30T00:42:44;6.15;;;2.97;;
69594;SDS011;56800;52.142;5.364;2023-03-30T00:45:14;8.63;;;3.13;;
69594;SDS011;56800;52.142;5.364;2023-03-30T00:50:30;8.60;;;3.17;;
69594;SDS011;56800;52.142;5.364;2023-03-30T00:53:10;10.23;;;2.95;;
69594;SDS011;56800;52.142;5.364;2023-03-30T00:55:49;10.73;;;3.05;;
69594;SDS011;56800;52.142;5.364;2023-03-30T00:58:18;8.40;;;2.80;;
69594;SDS011;56800;52.142;5.364;2023-03-30T01:00:47;6.65;;;3.10;;
69594;SDS011;56800;52.142;5.364;2023-03-30T01:03:30;7.53;;;2.95;;
69594;SDS011;56800;52.142;5.364;2023-03-30T01:06:11;8.85;;;3.28;;
69594;SDS011;56800;52.142;5.364;2023-03-30T01:08:39;8.25;;;3.15;;
69594;SDS011;56800;52.142;5.364;2023-03-30T01:11:07;7.27;;;2.60;;
69594;SDS011;56800;52.142;5.364;2023-03-30T01:13:37;5.30;;;2.83;;
69594;SDS011;56800;52.142;5.364;2023-03-30T01:44:02;12.20;;;2.85;;
69594;SDS011;56800;52.142;5.364;2023-03-30T01:46:36;5.15;;;2.60;;
69594;SDS011;56800;52.142;5.364;2023-03-30T01:49:20;6.25;;;2.40;;
69594;SDS011;56800;52.142;5.364;2023-03-30T01:54:30;6.70;;;2.50;;
69594;SDS011;56800;52.142;5.364;2023-03-30T01:57:12;8.35;;;2.55;;
69594;SDS011;56800;52.142;5.364;2023-03-30T01:59:46;6.05;;;2.15;;
69594;SDS011;56800;52.142;5.364;2023-03-30T02:02:29;8.00;;;2.20;;
69594;SDS011;56800;52.142;5.364;2023-03-30T02:04:57;5.30;;;2.60;;
69594;SDS011;56800;52.142;5.364;2023-03-30T02:07:28;5.95;;;2.50;;
69594;SDS011;56800;52.142;5.364;2023-03-30T02:09:59;5.15;;;2.67;;
69594;SDS011;56800;52.142;5.364;2023-03-30T02:12:30;9.27;;;2.33;;
69594;SDS011;56800;52.142;5.364;2023-03-30T02:14:59;7.93;;;2.53;;
69594;SDS011;56800;52.142;5.364;2023-03-30T02:17:29;8.20;;;2.60;;
69594;SDS011;56800;52.142;5.364;2023-03-30T02:19:57;6.53;;;2.70;;
69594;SDS011;56800;52.142;5.364;2023-03-30T02:22:24;6.10;;;2.40;;
69594;SDS011;56800;52.142;5.364;2023-03-30T02:24:55;7.63;;;2.53;;
69594;SDS011;56800;52.142;5.364;2023-03-30T02:27:23;7.10;;;2.97;;
69594;SDS011;56800;52.142;5.364;2023-03-30T02:29:52;8.73;;;2.77;;
69594;SDS011;56800;52.142;5.364;2023-03-30T02:32:20;7.88;;;2.28;;
69594;SDS011;56800;52.142;5.364;2023-03-30T02:35:00;9.02;;;2.55;;
69594;SDS011;56800;52.142;5.364;2023-03-30T02:43:43;7.90;;;2.73;;
69594;SDS011;56800;52.142;5.364;2023-03-30T02:58:25;10.03;;;3.13;;
69594;SDS011;56800;52.142;5.364;2023-03-30T03:01:09;5.13;;;2.30;;
69594;SDS011;56800;52.142;5.364;2023-03-30T03:03:44;7.80;;;2.67;;
69594;SDS011;56800;52.142;5.364;2023-03-30T03:06:13;7.90;;;2.25;;
69594;SDS011;56800;52.142;5.364;2023-03-30T03:08:42;8.00;;;2.47;;
69594;SDS011;56800;52.142;5.364;2023-03-30T03:11:10;6.50;;;2.60;;
69594;SDS011;56800;52.142;5.364;2023-03-30T03:13:37;6.82;;;2.13;;
69594;SDS011;56800;52.142;5.364;2023-03-30T03:16:04;6.72;;;2.15;;
69594;SDS011;56800;52.142;5.364;2023-03-30T03:18:33;5.72;;;1.88;;
69594;SDS011;56800;52.142;5.364;2023-03-30T03:21:05;10.60;;;2.33;;
69594;SDS011;56800;52.142;5.364;2023-03-30T03:23:36;9.40;;;2.57;;
69594;SDS011;56800;52.142;5.364;2023-03-30T03:26:03;7.80;;;2.10;;
69594;SDS011;56800;52.142;5.364;2023-03-30T03:28:30;6.53;;;2.50;;
69594;SDS011;56800;52.142;5.364;2023-03-30T03:30:56;6.90;;;2.08;;
69594;SDS011;56800;52.142;5.364;2023-03-30T03:33:25;8.65;;;1.95;;
69594;SDS011;56800;52.142;5.364;2023-03-30T03:35:52;5.63;;;1.80;;
69594;SDS011;56800;52.142;5.364;2023-03-30T03:38:20;7.60;;;1.65;;
69594;SDS011;56800;52.142;5.364;2023-03-30T03:40:50;7.72;;;1.98;;
69594;SDS011;56800;52.142;5.364;2023-03-30T03:43:18;7.13;;;2.28;;
69594;SDS011;56800;52.142;5.364;2023-03-30T03:45:45;5.45;;;1.80;;
69594;SDS011;56800;52.142;5.364;2023-03-30T03:48:13;10.10;;;1.90;;
69594;SDS011;56800;52.142;5.364;2023-03-30T03:50:41;4.15;;;1.52;;
69594;SDS011;56800;52.142;5.364;2023-03-30T03:53:08;6.35;;;2.03;;
69594;SDS011;56800;52.142;5.364;2023-03-30T03:55:36;7.38;;;1.88;;
69594;SDS011;56800;52.142;5.364;2023-03-30T03:58:04;6.25;;;2.25;;
69594;SDS011;56800;52.142;5.364;2023-03-30T04:00:32;8.80;;;2.13;;
69594;SDS011;56800;52.142;5.364;2023-03-30T04:02:59;6.35;;;1.80;;
69594;SDS011;56800;52.142;5.364;2023-03-30T04:05:26;6.95;;;2.22;;
69594;SDS011;56800;52.142;5.364;2023-03-30T04:07:53;6.25;;;1.80;;
69594;SDS011;56800;52.142;5.364;2023-03-30T04:10:21;5.68;;;1.92;;
69594;SDS011;56800;52.142;5.364;2023-03-30T04:12:49;7.60;;;1.63;;
69594;SDS011;56800;52.142;5.364;2023-03-30T04:15:16;9.73;;;1.63;;
69594;SDS011;56800;52.142;5.364;2023-03-30T04:17:42;9.05;;;2.28;;
69594;SDS011;56800;52.142;5.364;2023-03-30T04:20:12;9.38;;;2.05;;
69594;SDS011;56800;52.142;5.364;2023-03-30T04:22:39;6.07;;;1.75;;
69594;SDS011;56800;52.142;5.364;2023-03-30T04:25:11;7.00;;;1.50;;
69594;SDS011;56800;52.142;5.364;2023-03-30T04:27:40;10.45;;;2.40;;
69594;SDS011;56800;52.142;5.364;2023-03-30T04:30:10;10.15;;;2.25;;
69594;SDS011;56800;52.142;5.364;2023-03-30T04:32:37;6.60;;;1.80;;
69594;SDS011;56800;52.142;5.364;2023-03-30T04:35:04;8.35;;;2.38;;
69594;SDS011;56800;52.142;5.364;2023-03-30T04:37:32;8.37;;;1.77;;
69594;SDS011;56800;52.142;5.364;2023-03-30T04:40:00;7.70;;;2.22;;
69594;SDS011;56800;52.142;5.364;2023-03-30T04:42:34;9.95;;;2.42;;
69594;SDS011;56800;52.142;5.364;2023-03-30T04:45:03;9.07;;;2.03;;
69594;SDS011;56800;52.142;5.364;2023-03-30T04:47:31;9.18;;;2.20;;
69594;SDS011;56800;52.142;5.364;2023-03-30T04:49:57;6.33;;;1.83;;
69594;SDS011;56800;52.142;5.364;2023-03-30T04:52:25;10.65;;;1.75;;
69594;SDS011;56800;52.142;5.364;2023-03-30T04:54:52;7.78;;;2.20;;
69594;SDS011;56800;52.142;5.364;2023-03-30T04:57:19;7.95;;;1.92;;
69594;SDS011;56800;52.142;5.364;2023-03-30T04:59:46;12.13;;;2.28;;
69594;SDS011;56800;52.142;5.364;2023-03-30T05:02:13;9.70;;;2.47;;
69594;SDS011;56800;52.142;5.364;2023-03-30T05:04:41;9.48;;;1.80;;
69594;SDS011;56800;52.142;5.364;2023-03-30T05:07:08;6.60;;;2.55;;
69594;SDS011;56800;52.142;5.364;2023-03-30T05:09:34;8.45;;;2.38;;
69594;SDS011;56800;52.142;5.364;2023-03-30T05:12:01;9.30;;;2.42;;
69594;SDS011;56800;52.142;5.364;2023-03-30T05:14:29;8.10;;;2.10;;
69594;SDS011;56800;52.142;5.364;2023-03-30T05:16:56;6.50;;;1.70;;
69594;SDS011;56800;52.142;5.364;2023-03-30T05:19:24;6.75;;;2.20;;
69594;SDS011;56800;52.142;5.364;2023-03-30T05:21:50;10.48;;;2.25;;
69594;SDS011;56800;52.142;5.364;2023-03-30T05:24:17;9.88;;;2.38;;
69594;SDS011;56800;52.142;5.364;2023-03-30T05:26:44;7.93;;;2.30;;
69594;SDS011;56800;52.142;5.364;2023-03-30T05:29:10;10.50;;;2.63;;
69594;SDS011;56800;52.142;5.364;2023-03-30T05:31:37;14.40;;;2.78;;
69594;SDS011;56800;52.142;5.364;2023-03-30T05:34:04;9.55;;;2.38;;
69594;SDS011;56800;52.142;5.364;2023-03-30T05:36:31;12.68;;;2.90;;
69594;SDS011;56800;52.142;5.364;2023-03-30T05:39:00;12.90;;;2.67;;
69594;SDS011;56800;52.142;5.364;2023-03-30T05:41:30;9.93;;;2.30;;
69594;SDS011;56800;52.142;5.364;2023-03-30T05:43:56;9.63;;;2.35;;
69594;SDS011;56800;52.142;5.364;2023-03-30T05:46:23;10.00;;;2.53;;
69594;SDS011;56800;52.142;5.364;2023-03-30T05:48:50;11.90;;;3.10;;
69594;SDS011;56800;52.142;5.364;2023-03-30T05:51:17;9.83;;;2.37;;
69594;SDS011;56800;52.142;5.364;2023-03-30T05:53:43;17.88;;;2.63;;
69594;SDS011;56800;52.142;5.364;2023-03-30T05:56:10;19.33;;;2.85;;
69594;SDS011;56800;52.142;5.364;2023-03-30T05:58:37;13.57;;;3.08;;
69594;SDS011;56800;52.142;5.364;2023-03-30T06:01:03;16.80;;;2.92;;
69594;SDS011;56800;52.142;5.364;2023-03-30T06:03:31;14.73;;;2.97;;
69594;SDS011;56800;52.142;5.364;2023-03-30T06:05:58;11.18;;;3.00;;
69594;SDS011;56800;52.142;5.364;2023-03-30T06:08:25;13.15;;;2.85;;
69594;SDS011;56800;52.142;5.364;2023-03-30T06:10:53;11.25;;;2.88;;
69594;SDS011;56800;52.142;5.364;2023-03-30T06:13:20;13.57;;;2.80;;
69594;SDS011;56800;52.142;5.364;2023-03-30T06:15:47;17.30;;;3.00;;
69594;SDS011;56800;52.142;5.364;2023-03-30T06:18:14;12.95;;;2.83;;
69594;SDS011;56800;52.142;5.364;2023-03-30T06:20:41;15.52;;;3.05;;
69594;SDS011;56800;52.142;5.364;2023-03-30T06:23:12;18.80;;;3.22;;
69594;SDS011;56800;52.142;5.364;2023-03-30T06:25:39;13.93;;;3.20;;
69594;SDS011;56800;52.142;5.364;2023-03-30T06:28:06;16.03;;;2.90;;
69594;SDS011;56800;52.142;5.364;2023-03-30T06:30:33;15.18;;;3.03;;
69594;SDS011;56800;52.142;5.364;2023-03-30T06:32:59;16.45;;;3.45;;
69594;SDS011;56800;52.142;5.364;2023-03-30T06:35:26;20.83;;;3.35;;
69594;SDS011;56800;52.142;5.364;2023-03-30T06:37:54;13.68;;;2.70;;
69594;SDS011;56800;52.142;5.364;2023-03-30T06:40:20;20.23;;;3.50;;
69594;SDS011;56800;52.142;5.364;2023-03-30T06:42:47;13.70;;;2.53;;
69594;SDS011;56800;52.142;5.364;2023-03-30T06:45:14;16.92;;;3.05;;
69594;SDS011;56800;52.142;5.364;2023-03-30T06:47:41;18.13;;;3.22;;
69594;SDS011;56800;52.142;5.364;2023-03-30T06:50:08;19.55;;;3.92;;
69594;SDS011;56800;52.142;5.364;2023-03-30T06:52:35;19.57;;;3.13;;
69594;SDS011;56800;52.142;5.364;2023-03-30T06:55:03;17.92;;;3.20;;
69594;SDS011;56800;52.142;5.364;2023-03-30T06:57:30;20.08;;;3.10;;
69594;SDS011;56800;52.142;5.364;2023-03-30T06:59:57;21.77;;;3.75;;
69594;SDS011;56800;52.142;5.364;2023-03-30T07:02:24;21.80;;;3.45;;
69594;SDS011;56800;52.142;5.364;2023-03-30T07:04:51;22.63;;;3.57;;
69594;SDS011;56800;52.142;5.364;2023-03-30T07:07:17;22.23;;;4.43;;
69594;SDS011;56800;52.142;5.364;2023-03-30T07:09:44;18.23;;;3.38;;
69594;SDS011;56800;52.142;5.364;2023-03-30T07:12:11;20.25;;;3.30;;
69594;SDS011;56800;52.142;5.364;2023-03-30T07:14:38;18.08;;;3.28;;
69594;SDS011;56800;52.142;5.364;2023-03-30T07:17:04;22.90;;;3.37;;
69594;SDS011;56800;52.142;5.364;2023-03-30T07:19:33;18.45;;;3.25;;
69594;SDS011;56800;52.142;5.364;2023-03-30T07:21:59;18.40;;;3.70;;
69594;SDS011;56800;52.142;5.364;2023-03-30T07:24:27;16.55;;;3.00;;
69594;SDS011;56800;52.142;5.364;2023-03-30T07:26:56;50.65;;;4.43;;
69594;SDS011;56800;52.142;5.364;2023-03-30T07:29:22;28.30;;;3.20;;
69594;SDS011;56800;52.142;5.364;2023-03-30T07:31:49;22.20;;;2.88;;
69594;SDS011;56800;52.142;5.364;2023-03-30T07:34:16;20.55;;;3.55;;
69594;SDS011;56800;52.142;5.364;2023-03-30T07:36:43;22.15;;;4.35;;
69594;SDS011;56800;52.142;5.364;2023-03-30T07:39:09;22.73;;;3.72;;
69594;SDS011;56800;52.142;5.364;2023-03-30T07:41:36;22.90;;;3.60;;
69594;SDS011;56800;52.142;5.364;2023-03-30T07:44:03;16.38;;;3.42;;
69594;SDS011;56800;52.142;5.364;2023-03-30T07:46:29;22.05;;;3.13;;
69594;SDS011;56800;52.142;5.364;2023-03-30T07:48:56;23.20;;;3.55;;
69594;SDS011;56800;52.142;5.364;2023-03-30T07:51:23;22.67;;;4.30;;
69594;SDS011;56800;52.142;5.364;2023-03-30T07:53:53;19.87;;;3.30;;
69594;SDS011;56800;52.142;5.364;2023-03-30T07:56:19;19.88;;;3.85;;
69594;SDS011;56800;52.142;5.364;2023-03-30T07:58:46;23.25;;;3.90;;
69594;SDS011;56800;52.142;5.364;2023-03-30T08:01:12;19.33;;;3.58;;
69594;SDS011;56800;52.142;5.364;2023-03-30T08:03:39;22.33;;;4.25;;
69594;SDS011;56800;52.142;5.364;2023-03-30T08:06:06;22.27;;;3.30;;
69594;SDS011;56800;52.142;5.364;2023-03-30T08:08:33;16.20;;;3.63;;
69594;SDS011;56800;52.142;5.364;2023-03-30T08:11:00;29.17;;;4.30;;
69594;SDS011;56800;52.142;5.364;2023-03-30T08:13:27;16.40;;;3.30;;
69594;SDS011;56800;52.142;5.364;2023-03-30T08:15:54;22.98;;;3.35;;
69594;SDS011;56800;52.142;5.364;2023-03-30T08:18:21;16.70;;;3.40;;
69594;SDS011;56800;52.142;5.364;2023-03-30T08:20:51;22.95;;;3.80;;
69594;SDS011;56800;52.142;5.364;2023-03-30T08:23:19;20.58;;;3.88;;
69594;SDS011;56800;52.142;5.364;2023-03-30T08:25:46;19.85;;;3.60;;
69594;SDS011;56800;52.142;5.364;2023-03-30T08:28:18;23.17;;;4.15;;
69594;SDS011;56800;52.142;5.364;2023-03-30T08:30:45;20.73;;;3.60;;
69594;SDS011;56800;52.142;5.364;2023-03-30T08:33:12;23.77;;;3.70;;
69594;SDS011;56800;52.142;5.364;2023-03-30T08:35:44;20.95;;;3.67;;
69594;SDS011;56800;52.142;5.364;2023-03-30T08:38:14;16.85;;;3.75;;
69594;SDS011;56800;52.142;5.364;2023-03-30T08:40:43;15.48;;;3.05;;
69594;SDS011;56800;52.142;5.364;2023-03-30T08:43:20;28.83;;;4.17;;
69594;SDS011;56800;52.142;5.364;2023-03-30T08:46:01;23.40;;;3.55;;
69594;SDS011;56800;52.142;5.364;2023-03-30T08:48:32;26.45;;;4.82;;
69594;SDS011;56800;52.142;5.364;2023-03-30T08:53:41;25.17;;;4.05;;
69594;SDS011;56800;52.142;5.364;2023-03-30T09:01:25;18.88;;;3.25;;
69594;SDS011;56800;52.142;5.364;2023-03-30T09:04:36;27.40;;;4.03;;
69594;SDS011;56800;52.142;5.364;2023-03-30T09:07:10;28.08;;;4.07;;
69594;SDS011;56800;52.142;5.364;2023-03-30T09:09:43;20.97;;;3.47;;
69594;SDS011;56800;52.142;5.364;2023-03-30T09:14:50;23.67;;;3.40;;
69594;SDS011;56800;52.142;5.364;2023-03-30T09:17:32;20.08;;;3.80;;
69594;SDS011;56800;52.142;5.364;2023-03-30T09:20:06;20.45;;;4.53;;
69594;SDS011;56800;52.142;5.364;2023-03-30T09:22:41;21.97;;;4.40;;
69594;SDS011;56800;52.142;5.364;2023-03-30T09:31:19;26.52;;;4.63;;
69594;SDS011;56800;52.142;5.364;2023-03-30T09:34:17;21.75;;;3.80;;
69594;SDS011;56800;52.142;5.364;2023-03-30T09:37:04;21.47;;;3.83;;
69594;SDS011;56800;52.142;5.364;2023-03-30T09:39:34;20.67;;;4.03;;
69594;SDS011;56800;52.142;5.364;2023-03-30T09:42:17;24.60;;;4.60;;
69594;SDS011;56800;52.142;5.364;2023-03-30T09:45:06;28.77;;;4.50;;
69594;SDS011;56800;52.142;5.364;2023-03-30T09:47:40;24.13;;;4.20;;
69594;SDS011;56800;52.142;5.364;2023-03-30T09:50:17;23.43;;;4.83;;
69594;SDS011;56800;52.142;5.364;2023-03-30T09:52:55;20.38;;;4.45;;
69594;SDS011;56800;52.142;5.364;2023-03-30T09:55:35;19.42;;;4.15;;
69594;SDS011;56800;52.142;5.364;2023-03-30T09:58:19;27.40;;;4.95;;
69594;SDS011;56800;52.142;5.364;2023-03-30T10:01:04;27.95;;;5.47;;
69594;SDS011;56800;52.142;5.364;2023-03-30T10:03:42;26.30;;;5.03;;
69594;SDS011;56800;52.142;5.364;2023-03-30T10:06:15;23.95;;;4.45;;
69594;SDS011;56800;52.142;5.364;2023-03-30T10:08:53;28.38;;;4.70;;
69594;SDS011;56800;52.142;5.364;2023-03-30T10:11:29;32.60;;;5.40;;
69594;SDS011;56800;52.142;5.364;2023-03-30T10:14:01;26.45;;;4.68;;
69594;SDS011;56800;52.142;5.364;2023-03-30T10:16:30;23.73;;;4.13;;
69594;SDS011;56800;52.142;5.364;2023-03-30T10:19:01;24.30;;;4.85;;
69594;SDS011;56800;52.142;5.364;2023-03-30T10:21:30;27.70;;;4.40;;
69594;SDS011;56800;52.142;5.364;2023-03-30T10:24:05;24.55;;;4.20;;
69594;SDS011;56800;52.142;5.364;2023-03-30T10:26:39;22.67;;;5.53;;
69594;SDS011;56800;52.142;5.364;2023-03-30T10:29:15;24.20;;;4.87;;
69594;SDS011;56800;52.142;5.364;2023-03-30T10:31:44;24.17;;;4.70;;
69594;SDS011;56800;52.142;5.364;2023-03-30T10:34:14;30.17;;;4.53;;
69594;SDS011;56800;52.142;5.364;2023-03-30T10:36:45;24.42;;;4.30;;
69594;SDS011;56800;52.142;5.364;2023-03-30T10:39:21;19.13;;;4.00;;
69594;SDS011;56800;52.142;5.364;2023-03-30T10:41:51;28.10;;;4.73;;
69594;SDS011;56800;52.142;5.364;2023-03-30T10:44:23;28.55;;;4.90;;
69594;SDS011;56800;52.142;5.364;2023-03-30T10:47:01;28.40;;;4.45;;
69594;SDS011;56800;52.142;5.364;2023-03-30T10:49:52;32.08;;;5.40;;
69594;SDS011;56800;52.142;5.364;2023-03-30T10:55:40;23.70;;;4.30;;
69594;SDS011;56800;52.142;5.364;2023-03-30T11:01:19;24.88;;;5.18;;
69594;SDS011;56800;52.142;5.364;2023-03-30T11:04:14;28.90;;;4.20;;
69594;SDS011;56800;52.142;5.364;2023-03-30T11:06:50;25.90;;;4.55;;
69594;SDS011;56800;52.142;5.364;2023-03-30T11:09:21;27.87;;;4.90;;
69594;SDS011;56800;52.142;5.364;2023-03-30T11:11:59;23.95;;;4.97;;
69594;SDS011;56800;52.142;5.364;2023-03-30T11:14:39;25.83;;;4.45;;
69594;SDS011;56800;52.142;5.364;2023-03-30T11:17:47;23.83;;;3.95;;
69594;SDS011;56800;52.142;5.364;2023-03-30T11:26:21;21.83;;;4.72;;
69594;SDS011;56800;52.142;5.364;2023-03-30T11:36:42;26.13;;;3.90;;
69594;SDS011;56800;52.142;5.364;2023-03-30T11:39:16;23.40;;;4.32;;
69594;SDS011;56800;52.142;5.364;2023-03-30T11:41:59;26.60;;;4.07;;
69594;SDS011;56800;52.142;5.364;2023-03-30T11:44:32;22.25;;;4.15;;
69594;SDS011;56800;52.142;5.364;2023-03-30T11:50:00;25.23;;;4.20;;
69594;SDS011;56800;52.142;5.364;2023-03-30T11:52:33;23.23;;;3.92;;
69594;SDS011;56800;52.142;5.364;2023-03-30T11:55:16;28.85;;;4.57;;
69594;SDS011;56800;52.142;5.364;2023-03-30T12:03:41;26.47;;;4.63;;
69594;SDS011;56800;52.142;5.364;2023-03-30T12:20:08;23.10;;;3.60;;
69594;SDS011;56800;52.142;5.364;2023-03-30T12:28:22;20.95;;;4.25;;
69594;SDS011;56800;52.142;5.364;2023-03-30T12:31:09;23.43;;;3.97;;
69594;SDS011;56800;52.142;5.364;2023-03-30T12:33:46;28.77;;;4.82;;
69594;SDS011;56800;52.142;5.364;2023-03-30T12:36:30;27.83;;;5.18;;
69594;SDS011;56800;52.142;5.364;2023-03-30T12:39:13;25.75;;;4.18;;
69594;SDS011;56800;52.142;5.364;2023-03-30T12:41:54;26.90;;;4.18;;
69594;SDS011;56800;52.142;5.364;2023-03-30T12:50:05;29.38;;;5.43;;
69594;SDS011;56800;52.142;5.364;2023-03-30T13:06:30;21.73;;;4.00;;
69594;SDS011;56800;52.142;5.364;2023-03-30T13:09:27;25.50;;;4.97;;
69594;SDS011;56800;52.142;5.364;2023-03-30T13:19:26;34.05;;;5.53;;
69594;SDS011;56800;52.142;5.364;2023-03-30T13:38:18;27.03;;;3.90;;
69594;SDS011;56800;52.142;5.364;2023-03-30T13:49:04;27.35;;;4.55;;
69594;SDS011;56800;52.142;5.364;2023-03-30T13:51:34;24.30;;;4.23;;
69594;SDS011;56800;52.142;5.364;2023-03-30T13:54:09;27.67;;;4.32;;
69594;SDS011;56800;52.142;5.364;2023-03-30T13:56:45;26.67;;;4.97;;
69594;SDS011;56800;52.142;5.364;2023-03-30T13:59:31;22.45;;;4.00;;
69594;SDS011;56800;52.142;5.364;2023-03-30T14:02:00;27.75;;;4.47;;
69594;SDS011;56800;52.142;5.364;2023-03-30T14:04:29;29.60;;;4.73;;
69594;SDS011;56800;52.142;5.364;2023-03-30T14:07:03;26.48;;;4.35;;
69594;SDS011;56800;52.142;5.364;2023-03-30T14:09:39;25.00;;;4.43;;
69594;SDS011;56800;52.142;5.364;2023-03-30T14:12:06;21.60;;;4.40;;
69594;SDS011;56800;52.142;5.364;2023-03-30T14:14:34;24.50;;;4.00;;
69594;SDS011;56800;52.142;5.364;2023-03-30T14:17:19;32.43;;;4.83;;
69594;SDS011;56800;52.142;5.364;2023-03-30T14:19:51;28.52;;;4.57;;
69594;SDS011;56800;52.142;5.364;2023-03-30T14:22:31;29.48;;;4.63;;
69594;SDS011;56800;52.142;5.364;2023-03-30T14:25:19;22.98;;;4.55;;
69594;SDS011;56800;52.142;5.364;2023-03-30T14:27:55;25.13;;;4.47;;
69594;SDS011;56800;52.142;5.364;2023-03-30T14:30:24;26.83;;;4.60;;
69594;SDS011;56800;52.142;5.364;2023-03-30T14:33:07;19.40;;;3.70;;
69594;SDS011;56800;52.142;5.364;2023-03-30T14:35:56;25.40;;;4.25;;
69594;SDS011;56800;52.142;5.364;2023-03-30T14:38:26;20.75;;;3.60;;
69594;SDS011;56800;52.142;5.364;2023-03-30T14:40:55;21.67;;;4.07;;
69594;SDS011;56800;52.142;5.364;2023-03-30T14:43:23;16.63;;;3.93;;
69594;SDS011;56800;52.142;5.364;2023-03-30T14:45:55;23.75;;;4.10;;
69594;SDS011;56800;52.142;5.364;2023-03-30T14:48:28;20.95;;;4.53;;
69594;SDS011;56800;52.142;5.364;2023-03-30T14:50:59;26.60;;;4.13;;
69594;SDS011;56800;52.142;5.364;2023-03-30T14:53:27;18.67;;;3.63;;
69594;SDS011;56800;52.142;5.364;2023-03-30T14:55:55;25.87;;;4.97;;
69594;SDS011;56800;52.142;5.364;2023-03-30T14:58:25;25.63;;;4.00;;
69594;SDS011;56800;52.142;5.364;2023-03-30T15:00:55;23.27;;;4.45;;
69594;SDS011;56800;52.142;5.364;2023-03-30T15:03:25;26.63;;;4.05;;
69594;SDS011;56800;52.142;5.364;2023-03-30T15:06:02;24.83;;;4.32;;
69594;SDS011;56800;52.142;5.364;2023-03-30T15:08:32;22.37;;;3.80;;
69594;SDS011;56800;52.142;5.364;2023-03-30T15:11:06;20.27;;;3.67;;
69594;SDS011;56800;52.142;5.364;2023-03-30T15:13:43;21.63;;;3.72;;
69594;SDS011;56800;52.142;5.364;2023-03-30T15:16:15;20.25;;;3.50;;
69594;SDS011;56800;52.142;5.364;2023-03-30T15:18:46;20.35;;;3.60;;
69594;SDS011;56800;52.142;5.364;2023-03-30T15:21:13;25.03;;;3.97;;
69594;SDS011;56800;52.142;5.364;2023-03-30T15:23:41;21.58;;;3.58;;
69594;SDS011;56800;52.142;5.364;2023-03-30T15:26:09;23.17;;;3.67;;
69594;SDS011;56800;52.142;5.364;2023-03-30T15:28:41;22.05;;;3.75;;
69594;SDS011;56800;52.142;5.364;2023-03-30T15:31:10;20.60;;;4.15;;
69594;SDS011;56800;52.142;5.364;2023-03-30T15:33:44;20.93;;;3.77;;
69594;SDS011;56800;52.142;5.364;2023-03-30T15:38:58;21.50;;;3.88;;
69594;SDS011;56800;52.142;5.364;2023-03-30T15:41:42;21.70;;;4.10;;
69594;SDS011;56800;52.142;5.364;2023-03-30T15:44:10;14.25;;;2.95;;
69594;SDS011;56800;52.142;5.364;2023-03-30T15:46:38;18.63;;;3.60;;
69594;SDS011;56800;52.142;5.364;2023-03-30T15:49:06;25.77;;;4.55;;
69594;SDS011;56800;52.142;5.364;2023-03-30T15:51:38;19.65;;;3.72;;
69594;SDS011;56800;52.142;5.364;2023-03-30T15:59:30;19.77;;;3.60;;
69594;SDS011;56800;52.142;5.364;2023-03-30T16:02:02;16.42;;;3.42;;
69594;SDS011;56800;52.142;5.364;2023-03-30T16:04:40;17.45;;;3.72;;
69594;SDS011;56800;52.142;5.364;2023-03-30T16:07:08;17.02;;;3.03;;
69594;SDS011;56800;52.142;5.364;2023-03-30T16:09:41;13.60;;;2.97;;
69594;SDS011;56800;52.142;5.364;2023-03-30T16:12:09;20.67;;;3.70;;
69594;SDS011;56800;52.142;5.364;2023-03-30T16:14:39;18.48;;;3.22;;
69594;SDS011;56800;52.142;5.364;2023-03-30T16:17:06;14.18;;;3.38;;
69594;SDS011;56800;52.142;5.364;2023-03-30T16:19:35;14.95;;;3.22;;
69594;SDS011;56800;52.142;5.364;2023-03-30T16:22:04;15.25;;;3.13;;
69594;SDS011;56800;52.142;5.364;2023-03-30T16:24:30;15.93;;;3.00;;
69594;SDS011;56800;52.142;5.364;2023-03-30T16:26:57;17.83;;;3.50;;
69594;SDS011;56800;52.142;5.364;2023-03-30T16:29:24;15.38;;;2.92;;
69594;SDS011;56800;52.142;5.364;2023-03-30T16:31:51;16.27;;;3.42;;
69594;SDS011;56800;52.142;5.364;2023-03-30T16:34:19;16.10;;;3.28;;
69594;SDS011;56800;52.142;5.364;2023-03-30T16:36:47;14.03;;;2.67;;
69594;SDS011;56800;52.142;5.364;2023-03-30T16:39:16;18.83;;;3.25;;
69594;SDS011;56800;52.142;5.364;2023-03-30T16:41:45;16.58;;;3.03;;
69594;SDS011;56800;52.142;5.364;2023-03-30T16:44:13;12.50;;;2.55;;
69594;SDS011;56800;52.142;5.364;2023-03-30T16:46:40;11.18;;;3.05;;
69594;SDS011;56800;52.142;5.364;2023-03-30T16:49:11;15.70;;;2.90;;
69594;SDS011;56800;52.142;5.364;2023-03-30T16:51:39;15.50;;;2.58;;
69594;SDS011;56800;52.142;5.364;2023-03-30T16:54:06;15.30;;;2.80;;
69594;SDS011;56800;52.142;5.364;2023-03-30T16:56:48;15.63;;;2.78;;
69594;SDS011;56800;52.142;5.364;2023-03-30T16:59:25;13.85;;;3.30;;
69594;SDS011;56800;52.142;5.364;2023-03-30T17:01:54;12.97;;;3.00;;
69594;SDS011;56800;52.142;5.364;2023-03-30T17:04:21;16.92;;;2.85;;
69594;SDS011;56800;52.142;5.364;2023-03-30T17:06:47;17.50;;;2.75;;
69594;SDS011;56800;52.142;5.364;2023-03-30T17:09:15;20.27;;;3.78;;
69594;SDS011;56800;52.142;5.364;2023-03-30T17:11:43;20.38;;;3.47;;
69594;SDS011;56800;52.142;5.364;2023-03-30T17:14:11;27.67;;;3.43;;
69594;SDS011;56800;52.142;5.364;2023-03-30T17:16:38;18.88;;;2.80;;
69594;SDS011;56800;52.142;5.364;2023-03-30T17:19:08;18.98;;;3.85;;
69594;SDS011;56800;52.142;5.364;2023-03-30T17:21:37;18.17;;;3.10;;
69594;SDS011;56800;52.142;5.364;2023-03-30T17:24:05;23.67;;;4.05;;
69594;SDS011;56800;52.142;5.364;2023-03-30T17:26:32;16.73;;;3.37;;
69594;SDS011;56800;52.142;5.364;2023-03-30T17:28:59;17.60;;;3.42;;
69594;SDS011;56800;52.142;5.364;2023-03-30T17:31:25;18.60;;;3.17;;
69594;SDS011;56800;52.142;5.364;2023-03-30T17:33:52;14.80;;;3.33;;
69594;SDS011;56800;52.142;5.364;2023-03-30T17:36:23;15.57;;;3.03;;
69594;SDS011;56800;52.142;5.364;2023-03-30T17:38:51;20.43;;;3.80;;
69594;SDS011;56800;52.142;5.364;2023-03-30T17:41:17;16.50;;;2.92;;
69594;SDS011;56800;52.142;5.364;2023-03-30T17:43:45;15.00;;;3.50;;
69594;SDS011;56800;52.142;5.364;2023-03-30T17:46:14;18.02;;;3.72;;
69594;SDS011;56800;52.142;5.364;2023-03-30T17:48:42;16.83;;;2.92;;
69594;SDS011;56800;52.142;5.364;2023-03-30T17:51:09;17.43;;;3.30;;
69594;SDS011;56800;52.142;5.364;2023-03-30T17:53:36;18.33;;;3.17;;
69594;SDS011;56800;52.142;5.364;2023-03-30T17:56:02;21.60;;;3.13;;